createdAt,value
2023-02-14T00:01:48.504Z,101386.38
2023-02-14T00:05:53.501Z,101396.00
2023-02-14T00:09:58.257Z,101389.97
2023-02-14T00:14:18.835Z,101385.66
2023-02-14T00:18:44.732Z,101393.44
2023-02-14T00:22:47.854Z,101400.38
2023-02-14T00:26:53.260Z,101396.13
2023-02-14T00:30:59.204Z,101392.66
2023-02-14T00:35:05.743Z,101389.16
2023-02-14T00:39:11.491Z,101398.75
2023-02-14T00:43:23.379Z,101392.69
2023-02-14T00:47:26.493Z,101388.38
2023-02-14T00:51:29.855Z,101391.78
2023-02-14T00:55:34.598Z,101395.31
2023-02-14T00:59:39.193Z,101383.25
2023-02-14T01:03:43.016Z,101384.13
2023-02-14T01:07:46.133Z,101392.03
2023-02-14T01:11:49.935Z,101395.50
2023-02-14T01:15:55.025Z,101397.25
2023-02-14T01:19:58.165Z,101399.75
2023-02-14T01:24:03.233Z,101413.69
2023-02-14T01:28:06.339Z,101399.94
2023-02-14T01:32:10.805Z,101398.22
2023-02-14T01:36:20.091Z,101402.53
2023-02-14T01:40:23.188Z,101393.88
2023-02-14T01:44:59.583Z,101386.09
2023-02-14T01:49:07.441Z,101388.78
2023-02-14T01:53:13.826Z,101394.88
2023-02-14T01:57:20.959Z,101397.53
2023-02-14T02:01:25.439Z,101395.81
2023-02-14T02:05:32.662Z,101395.00
2023-02-14T02:09:38.409Z,101412.44
2023-02-14T02:13:41.366Z,101415.06
2023-02-14T02:17:53.342Z,101402.06
2023-02-14T02:22:26.272Z,101409.91
2023-02-14T02:26:55.756Z,101399.50
2023-02-14T02:31:22.523Z,101407.34
2023-02-14T02:35:51.719Z,101399.56
2023-02-14T02:40:09.044Z,101397.00
2023-02-14T02:44:21.313Z,101401.41
2023-02-14T02:48:27.864Z,101404.88
2023-02-14T02:52:58.736Z,101414.47
2023-02-14T02:57:07.184Z,101418.91
2023-02-14T03:01:13.677Z,101421.47
2023-02-14T03:05:18.151Z,101425.91
2023-02-14T03:09:57.762Z,101433.69
2023-02-14T03:14:14.300Z,101442.44
2023-02-14T03:18:40.002Z,101441.59
2023-02-14T03:22:50.470Z,101439.78
2023-02-14T03:27:01.537Z,101438.13
2023-02-14T03:31:10.008Z,101441.66
2023-02-14T03:35:19.079Z,101452.13
2023-02-14T03:39:29.675Z,101450.41
2023-02-14T03:43:38.285Z,101455.63
2023-02-14T03:47:43.805Z,101453.06
2023-02-14T03:51:55.241Z,101452.25
2023-02-14T03:56:04.916Z,101448.75
2023-02-14T04:00:11.107Z,101445.28
2023-02-14T04:04:16.211Z,101447.06
2023-02-14T04:08:26.776Z,101441.03
2023-02-14T04:12:37.756Z,101446.25
2023-02-14T04:16:56.507Z,101438.44
2023-02-14T04:20:59.313Z,101439.38
2023-02-14T04:25:02.721Z,101432.47
2023-02-14T04:29:06.352Z,101439.44
2023-02-14T04:33:11.012Z,101446.38
2023-02-14T04:37:15.360Z,101438.59
2023-02-14T04:41:18.576Z,101447.28
2023-02-14T04:45:21.658Z,101453.38
2023-02-14T04:49:26.227Z,101449.03
2023-02-14T04:53:31.918Z,101456.03
2023-02-14T04:57:35.085Z,101454.31
2023-02-14T05:01:39.066Z,101466.50
2023-02-14T05:05:44.864Z,101471.72
2023-02-14T05:09:49.907Z,101473.50
2023-02-14T05:13:54.770Z,101479.56
2023-02-14T05:18:01.857Z,101483.06
2023-02-14T05:22:06.662Z,101485.69
2023-02-14T05:26:09.579Z,101492.69
2023-02-14T05:30:14.832Z,101491.78
2023-02-14T05:34:18.898Z,101496.13
2023-02-14T05:38:23.145Z,101497.00
2023-02-14T05:42:27.757Z,101497.94
2023-02-14T05:46:30.831Z,101489.25
2023-02-14T05:50:34.040Z,101501.41
2023-02-14T05:54:38.303Z,101503.16
2023-02-14T05:58:41.379Z,101510.97
2023-02-14T06:02:44.544Z,101508.38
2023-02-14T06:06:47.994Z,101514.44
2023-02-14T06:10:52.497Z,101515.34
2023-02-14T06:14:55.809Z,101524.03
2023-02-14T06:18:58.922Z,101512.75
2023-02-14T06:23:03.008Z,101521.44
2023-02-14T06:27:07.344Z,101524.91
2023-02-14T06:31:16.220Z,101526.66
2023-02-14T06:35:19.491Z,101531.03
2023-02-14T06:39:23.909Z,101538.81
2023-02-14T06:43:28.529Z,101539.69
2023-02-14T06:47:33.296Z,101532.72
2023-02-14T06:51:37.700Z,101538.81
2023-02-14T06:55:43.538Z,101539.69
2023-02-14T06:59:48.683Z,101532.69
2023-02-14T07:03:51.423Z,101543.13
2023-02-14T07:07:55.886Z,101535.34
2023-02-14T07:11:58.399Z,101552.72
2023-02-14T07:16:03.026Z,101553.53
2023-02-14T07:20:07.620Z,101557.03
2023-02-14T07:24:13.890Z,101554.38
2023-02-14T07:28:17.096Z,101549.06
2023-02-14T07:32:21.759Z,101554.28
2023-02-14T07:36:24.803Z,101547.31
2023-02-14T07:40:33.572Z,101540.34
2023-02-14T07:45:06.875Z,101550.69
2023-02-14T07:49:09.507Z,101558.50
2023-02-14T07:53:17.215Z,101557.56
2023-02-14T07:57:20.399Z,101562.78
2023-02-14T08:01:23.423Z,101578.44
2023-02-14T08:05:29.659Z,101571.56
2023-02-14T08:09:33.272Z,101575.88
2023-02-14T08:13:36.913Z,101580.28
2023-02-14T08:17:40.049Z,101583.72
2023-02-14T08:21:44.310Z,101581.91
2023-02-14T08:25:47.232Z,101588.81
2023-02-14T08:29:50.533Z,101592.31
2023-02-14T08:33:53.700Z,101600.97
2023-02-14T08:37:58.394Z,101601.81
2023-02-14T08:42:03.649Z,101600.97
2023-02-14T08:46:07.028Z,101605.38
2023-02-14T08:50:15.280Z,101599.28
2023-02-14T08:54:20.049Z,101602.69
2023-02-14T08:58:23.167Z,101602.72
2023-02-14T09:02:27.755Z,101617.44
2023-02-14T09:06:31.652Z,101617.34
2023-02-14T09:10:39.448Z,101619.09
2023-02-14T09:14:45.623Z,101610.44
2023-02-14T09:18:49.698Z,101619.09
2023-02-14T09:22:52.948Z,101613.88
2023-02-14T09:26:58.357Z,101616.44
2023-02-14T09:31:11.224Z,101613.72
2023-02-14T09:35:31.417Z,101611.94
2023-02-14T09:39:38.164Z,101625.69
2023-02-14T09:43:50.997Z,101617.91
2023-02-14T09:47:58.956Z,101620.47
2023-02-14T09:52:07.499Z,101625.78
2023-02-14T09:56:17.677Z,101631.00
2023-02-14T10:00:30.811Z,101626.66
2023-02-14T10:04:40.312Z,101621.44
2023-02-14T10:08:57.121Z,101624.88
2023-02-14T10:13:07.769Z,101629.97
2023-02-14T10:17:19.866Z,101630.03
2023-02-14T10:21:26.928Z,101622.09
2023-02-14T10:25:35.759Z,101631.75
2023-02-14T10:29:42.292Z,101628.19
2023-02-14T10:33:57.705Z,101620.34
2023-02-14T10:38:06.762Z,101626.44
2023-02-14T10:42:20.782Z,101621.13
2023-02-14T10:46:36.220Z,101626.31
2023-02-14T10:50:48.890Z,101625.31
2023-02-14T10:54:56.945Z,101625.25
2023-02-14T10:59:04.014Z,101633.91
2023-02-14T11:03:11.163Z,101616.50
2023-02-14T11:07:16.858Z,101619.94
2023-02-14T11:11:29.979Z,101619.13
2023-02-14T11:15:37.187Z,101611.31
2023-02-14T11:19:40.247Z,101606.06
2023-02-14T11:23:46.789Z,101601.69
2023-02-14T11:27:57.416Z,101605.13
2023-02-14T11:32:09.917Z,101596.38
2023-02-14T11:36:16.975Z,101599.69
2023-02-14T11:40:33.988Z,101593.44
2023-02-14T11:44:44.148Z,101594.31
2023-02-14T11:48:56.531Z,101593.50
2023-02-14T11:53:00.397Z,101580.25
2023-02-14T11:57:08.906Z,101582.00
2023-02-14T12:01:21.682Z,101576.78
2023-02-14T12:05:29.548Z,101582.94
2023-02-14T12:09:34.407Z,101575.09
2023-02-14T12:13:40.962Z,101573.13
2023-02-14T12:17:50.432Z,101574.09
2023-02-14T12:21:58.406Z,101569.81
2023-02-14T12:26:06.105Z,101569.75
2023-02-14T12:30:17.988Z,101575.16
2023-02-14T12:34:21.641Z,101574.22
2023-02-14T12:38:32.334Z,101575.84
2023-02-14T12:42:49.522Z,101575.66
2023-02-14T12:47:16.334Z,101574.75
2023-02-14T12:51:27.445Z,101570.44
2023-02-14T12:55:42.946Z,101572.19
2023-02-14T13:00:00.283Z,101567.13
2023-02-14T13:04:27.019Z,101574.00
2023-02-14T13:08:48.240Z,101565.41
2023-02-14T13:13:01.044Z,101558.34
2023-02-14T13:17:14.358Z,101557.44
2023-02-14T13:21:23.833Z,101562.81
2023-02-14T13:25:32.090Z,101563.00
2023-02-14T13:29:46.573Z,101570.94
2023-02-14T13:33:53.802Z,101569.28
2023-02-14T13:38:02.199Z,101567.41
2023-02-14T13:42:06.321Z,101571.78
2023-02-14T13:46:09.615Z,101573.41
2023-02-14T13:50:22.371Z,101568.09
2023-02-14T13:54:37.889Z,101563.78
2023-02-14T13:58:49.073Z,101566.38
2023-02-14T14:02:53.688Z,101570.59
2023-02-14T14:07:27.293Z,101570.56
2023-02-14T14:11:52.928Z,101567.19
2023-02-14T14:16:28.007Z,101570.75
2023-02-14T14:20:43.620Z,101576.94
2023-02-14T14:24:59.888Z,101577.88
2023-02-14T14:29:11.738Z,101576.16
2023-02-14T14:33:15.951Z,101577.09
2023-02-14T14:37:23.767Z,101583.25
2023-02-14T14:41:33.286Z,101579.78
2023-02-14T14:45:41.940Z,101570.28
2023-02-14T14:49:45.103Z,101572.84
2023-02-14T14:53:52.132Z,101568.47
2023-02-14T14:57:58.861Z,101578.97
2023-02-14T15:02:03.918Z,101575.53
2023-02-14T15:06:11.439Z,101575.56
2023-02-14T15:10:27.402Z,101577.41
2023-02-14T15:14:37.184Z,101574.81
2023-02-14T15:18:41.746Z,101575.72
2023-02-14T15:22:47.713Z,101587.97
2023-02-14T15:26:53.353Z,101581.91
2023-02-14T15:31:03.466Z,101588.00
2023-02-14T15:35:18.978Z,101590.66
2023-02-14T15:39:27.597Z,101585.44
2023-02-14T15:43:36.851Z,101590.66
2023-02-14T15:47:41.851Z,101588.97
2023-02-14T15:51:46.306Z,101587.22
2023-02-14T15:55:51.185Z,101595.09
2023-02-14T15:59:55.304Z,101589.03
2023-02-14T16:04:01.861Z,101593.41
2023-02-14T16:08:09.553Z,101596.91
2023-02-14T16:12:34.042Z,101596.91
2023-02-14T16:16:58.482Z,101603.88
2023-02-14T16:21:15.763Z,101607.34
2023-02-14T16:25:23.319Z,101615.22
2023-02-14T16:29:26.409Z,101615.22
2023-02-14T16:33:31.590Z,101622.22
2023-02-14T16:37:36.385Z,101620.44
2023-02-14T16:41:44.531Z,101615.22
2023-02-14T16:45:48.087Z,101620.47
2023-02-14T16:49:53.231Z,101611.72
2023-02-14T16:54:01.156Z,101621.34
2023-02-14T16:58:05.527Z,101627.44
2023-02-14T17:02:10.486Z,101618.75
2023-02-14T17:06:22.057Z,101616.09
2023-02-14T17:10:25.278Z,101622.22
2023-02-14T17:14:34.907Z,101623.97
2023-02-14T17:18:38.062Z,101618.75
2023-02-14T17:22:42.781Z,101621.34
2023-02-14T17:26:48.901Z,101629.22
2023-02-14T17:30:54.850Z,101631.78
2023-02-14T17:34:58.021Z,101635.28
2023-02-14T17:39:01.098Z,101628.34
2023-02-14T17:43:08.552Z,101630.09
2023-02-14T17:47:14.949Z,101632.69
2023-02-14T17:51:20.567Z,101634.44
2023-02-14T17:55:24.023Z,101626.63
2023-02-14T17:59:30.045Z,101633.59
2023-02-14T18:03:38.048Z,101624.88
2023-02-14T18:07:43.563Z,101628.34
2023-02-14T18:11:50.896Z,101627.47
2023-02-14T18:16:00.185Z,101624.88
2023-02-14T18:20:06.053Z,101624.00
2023-02-14T18:24:10.042Z,101624.00
2023-02-14T18:28:13.171Z,101619.66
2023-02-14T18:32:20.507Z,101627.53
2023-02-14T18:36:25.584Z,101614.47
2023-02-14T18:40:29.993Z,101629.22
2023-02-14T18:44:33.758Z,101627.53
2023-02-14T18:48:38.588Z,101628.41
2023-02-14T18:52:45.939Z,101628.41
2023-02-14T18:56:48.806Z,101627.53
2023-02-14T19:00:52.111Z,101630.13
2023-02-14T19:04:55.119Z,101631.00
2023-02-14T19:08:59.965Z,101631.88
2023-02-14T19:13:05.855Z,101634.53
2023-02-14T19:17:09.328Z,101641.44
2023-02-14T19:21:14.657Z,101637.97
2023-02-14T19:25:19.407Z,101633.66
2023-02-14T19:29:23.368Z,101635.38
2023-02-14T19:33:26.721Z,101633.66
2023-02-14T19:37:30.113Z,101639.75
2023-02-14T19:41:35.870Z,101634.53
2023-02-14T19:45:40.222Z,101636.31
2023-02-14T19:49:46.549Z,101632.81
2023-02-14T19:53:50.036Z,101643.25
2023-02-14T19:57:54.515Z,101636.31
2023-02-14T20:01:58.572Z,101631.94
2023-02-14T20:06:03.611Z,101631.09
2023-02-14T20:10:07.701Z,101628.47
2023-02-14T20:14:18.362Z,101638.03
2023-02-14T20:18:24.702Z,101632.84
2023-02-14T20:22:28.378Z,101619.81
2023-02-14T20:26:33.318Z,101634.59
2023-02-14T20:30:40.138Z,101625.91
2023-02-14T20:34:46.180Z,101618.97
2023-02-14T20:38:49.172Z,101626.81
2023-02-14T20:42:52.319Z,101619.00
2023-02-14T20:46:57.090Z,101613.75
2023-02-14T20:51:09.669Z,101618.13
2023-02-14T20:55:12.852Z,101621.63
2023-02-14T20:59:17.373Z,101624.25
2023-02-14T21:03:23.773Z,101621.63
2023-02-14T21:07:31.027Z,101617.28
2023-02-14T21:11:34.552Z,101616.41
2023-02-14T21:15:44.881Z,101613.81
2023-02-14T21:19:55.373Z,101625.09
2023-02-14T21:23:58.506Z,101631.19
2023-02-14T21:28:03.333Z,101620.78
2023-02-14T21:32:08.828Z,101624.28
2023-02-14T21:36:18.088Z,101619.06
2023-02-14T21:40:26.330Z,101612.97
2023-02-14T21:44:47.208Z,101615.59
2023-02-14T21:49:07.408Z,101621.69
2023-02-14T21:53:11.632Z,101618.22
2023-02-14T21:57:14.750Z,101612.13
2023-02-14T22:01:20.944Z,101614.75
2023-02-14T22:05:24.247Z,101619.97
2023-02-14T22:09:29.115Z,101616.50
2023-02-14T22:13:32.163Z,101614.75
2023-02-14T22:17:37.941Z,101610.44
2023-02-14T22:21:40.985Z,101608.69
2023-02-14T22:25:45.633Z,101607.00
2023-02-14T22:29:48.551Z,101600.91
2023-02-14T22:33:54.495Z,101604.38
2023-02-14T22:37:59.816Z,101607.00
2023-02-14T22:42:06.957Z,101603.50
2023-02-14T22:46:12.460Z,101605.22
2023-02-14T22:50:15.760Z,101613.94
2023-02-14T22:54:18.809Z,101597.47
2023-02-14T22:58:26.547Z,101601.78
2023-02-14T23:02:30.205Z,101600.06
2023-02-14T23:06:35.757Z,101596.63
2023-02-14T23:10:38.991Z,101595.75
2023-02-14T23:15:00.965Z,101589.69
2023-02-14T23:19:21.583Z,101586.19
2023-02-14T23:23:24.845Z,101587.94
2023-02-14T23:27:30.825Z,101593.16
2023-02-14T23:31:37.105Z,101593.16
2023-02-14T23:35:40.661Z,101587.09
2023-02-14T23:39:45.039Z,101584.50
2023-02-14T23:43:50.323Z,101594.06
2023-02-14T23:47:54.999Z,101592.31
2023-02-14T23:51:58.161Z,101591.44
2023-02-14T23:56:06.106Z,101593.19
